sensor_id;sensor_type;location;lat;lon;timestamp;P1;durP1;ratioP1;P2;durP2;ratioP2
55328;SDS011;41205;44.264;19.884;2023-09-12T00:01:33;10.25;;;6.65;;
55328;SDS011;41205;44.264;19.884;2023-09-12T00:03:59;12.48;;;7.53;;
55328;SDS011;41205;44.264;19.884;2023-09-12T00:06:24;13.43;;;6.25;;
55328;SDS011;41205;44.264;19.884;2023-09-12T00:08:53;10.05;;;6.60;;
55328;SDS011;41205;44.264;19.884;2023-09-12T00:11:19;16.23;;;6.55;;
55328;SDS011;41205;44.264;19.884;2023-09-12T00:13:44;10.02;;;6.30;;
55328;SDS011;41205;44.264;19.884;2023-09-12T00:16:10;10.35;;;7.47;;
55328;SDS011;41205;44.264;19.884;2023-09-12T00:18:39;12.95;;;7.22;;
55328;SDS011;41205;44.264;19.884;2023-09-12T00:21:05;9.30;;;6.68;;
55328;SDS011;41205;44.264;19.884;2023-09-12T00:23:31;13.85;;;7.38;;
55328;SDS011;41205;44.264;19.884;2023-09-12T00:25:57;15.43;;;6.93;;
55328;SDS011;41205;44.264;19.884;2023-09-12T00:28:23;11.20;;;7.78;;
55328;SDS011;41205;44.264;19.884;2023-09-12T00:30:48;9.65;;;6.05;;
55328;SDS011;41205;44.264;19.884;2023-09-12T00:33:14;14.05;;;7.07;;
55328;SDS011;41205;44.264;19.884;2023-09-12T00:35:40;10.43;;;6.82;;
55328;SDS011;41205;44.264;19.884;2023-09-12T00:38:06;9.70;;;6.68;;
55328;SDS011;41205;44.264;19.884;2023-09-12T00:40:33;9.30;;;6.10;;
55328;SDS011;41205;44.264;19.884;2023-09-12T00:42:59;9.88;;;7.03;;
55328;SDS011;41205;44.264;19.884;2023-09-12T00:45:25;19.60;;;7.97;;
55328;SDS011;41205;44.264;19.884;2023-09-12T00:47:51;14.15;;;6.10;;
55328;SDS011;41205;44.264;19.884;2023-09-12T00:50:17;11.85;;;6.40;;
55328;SDS011;41205;44.264;19.884;2023-09-12T00:52:48;11.73;;;7.32;;
55328;SDS011;41205;44.264;19.884;2023-09-12T00:55:16;9.57;;;6.00;;
55328;SDS011;41205;44.264;19.884;2023-09-12T00:57:42;10.27;;;6.53;;
55328;SDS011;41205;44.264;19.884;2023-09-12T01:00:09;12.95;;;6.70;;
55328;SDS011;41205;44.264;19.884;2023-09-12T01:02:46;9.35;;;5.88;;
55328;SDS011;41205;44.264;19.884;2023-09-12T01:05:13;14.48;;;6.88;;
55328;SDS011;41205;44.264;19.884;2023-09-12T01:07:40;9.43;;;6.40;;
55328;SDS011;41205;44.264;19.884;2023-09-12T01:10:08;13.07;;;6.20;;
55328;SDS011;41205;44.264;19.884;2023-09-12T01:12:35;10.10;;;5.68;;
55328;SDS011;41205;44.264;19.884;2023-09-12T01:15:01;16.98;;;7.07;;
55328;SDS011;41205;44.264;19.884;2023-09-12T01:17:31;10.50;;;6.65;;
55328;SDS011;41205;44.264;19.884;2023-09-12T01:19:56;14.93;;;6.40;;
55328;SDS011;41205;44.264;19.884;2023-09-12T01:25:08;8.20;;;5.68;;
55328;SDS011;41205;44.264;19.884;2023-09-12T01:27:46;8.60;;;6.45;;
55328;SDS011;41205;44.264;19.884;2023-09-12T01:30:15;13.93;;;7.70;;
55328;SDS011;41205;44.264;19.884;2023-09-12T01:32:43;9.45;;;6.20;;
55328;SDS011;41205;44.264;19.884;2023-09-12T01:35:09;9.70;;;6.20;;
55328;SDS011;41205;44.264;19.884;2023-09-12T01:37:35;14.57;;;6.63;;
55328;SDS011;41205;44.264;19.884;2023-09-12T01:40:01;9.20;;;6.72;;
55328;SDS011;41205;44.264;19.884;2023-09-12T01:42:31;14.50;;;6.63;;
55328;SDS011;41205;44.264;19.884;2023-09-12T01:45:03;9.48;;;6.15;;
55328;SDS011;41205;44.264;19.884;2023-09-12T01:47:30;11.73;;;6.38;;
55328;SDS011;41205;44.264;19.884;2023-09-12T01:49:58;11.60;;;6.10;;
55328;SDS011;41205;44.264;19.884;2023-09-12T01:52:26;8.18;;;5.93;;
55328;SDS011;41205;44.264;19.884;2023-09-12T01:54:53;14.07;;;6.40;;
55328;SDS011;41205;44.264;19.884;2023-09-12T04:59:55;10.82;;;6.30;;
55328;SDS011;41205;44.264;19.884;2023-09-12T05:02:20;11.60;;;5.82;;
55328;SDS011;41205;44.264;19.884;2023-09-12T05:04:46;12.82;;;6.53;;
55328;SDS011;41205;44.264;19.884;2023-09-12T05:07:12;12.82;;;6.35;;
55328;SDS011;41205;44.264;19.884;2023-09-12T05:09:38;13.65;;;6.57;;
55328;SDS011;41205;44.264;19.884;2023-09-12T05:12:03;16.08;;;6.82;;
55328;SDS011;41205;44.264;19.884;2023-09-12T05:14:29;11.95;;;5.65;;
55328;SDS011;41205;44.264;19.884;2023-09-12T05:16:55;15.15;;;6.38;;
55328;SDS011;41205;44.264;19.884;2023-09-12T05:19:21;14.63;;;6.78;;
55328;SDS011;41205;44.264;19.884;2023-09-12T05:21:48;17.52;;;6.63;;
55328;SDS011;41205;44.264;19.884;2023-09-12T05:24:13;16.48;;;7.10;;
55328;SDS011;41205;44.264;19.884;2023-09-12T05:26:39;10.80;;;6.72;;
55328;SDS011;41205;44.264;19.884;2023-09-12T05:29:05;10.23;;;6.03;;
55328;SDS011;41205;44.264;19.884;2023-09-12T06:36:31;27.30;;;14.82;;
55328;SDS011;41205;44.264;19.884;2023-09-12T06:38:57;26.45;;;17.48;;
55328;SDS011;41205;44.264;19.884;2023-09-12T06:41:24;19.15;;;13.25;;
55328;SDS011;41205;44.264;19.884;2023-09-12T06:43:51;14.82;;;10.63;;
55328;SDS011;41205;44.264;19.884;2023-09-12T06:46:16;16.40;;;11.15;;
55328;SDS011;41205;44.264;19.884;2023-09-12T06:48:43;21.88;;;10.80;;
55328;SDS011;41205;44.264;19.884;2023-09-12T06:51:09;16.27;;;9.77;;
55328;SDS011;41205;44.264;19.884;2023-09-12T06:53:35;14.98;;;11.23;;
55328;SDS011;41205;44.264;19.884;2023-09-12T06:56:04;15.43;;;10.63;;
55328;SDS011;41205;44.264;19.884;2023-09-12T06:58:30;12.82;;;10.00;;
55328;SDS011;41205;44.264;19.884;2023-09-12T07:01:01;12.85;;;10.50;;
55328;SDS011;41205;44.264;19.884;2023-09-12T07:03:28;15.63;;;10.23;;
55328;SDS011;41205;44.264;19.884;2023-09-12T07:05:53;14.93;;;11.40;;
55328;SDS011;41205;44.264;19.884;2023-09-12T07:08:19;12.48;;;11.10;;
55328;SDS011;41205;44.264;19.884;2023-09-12T07:10:45;18.05;;;10.80;;
55328;SDS011;41205;44.264;19.884;2023-09-12T07:13:11;15.15;;;10.70;;
55328;SDS011;41205;44.264;19.884;2023-09-12T07:15:37;12.95;;;11.18;;
55328;SDS011;41205;44.264;19.884;2023-09-12T07:18:03;17.75;;;12.00;;
55328;SDS011;41205;44.264;19.884;2023-09-12T07:20:31;17.33;;;13.20;;
55328;SDS011;41205;44.264;19.884;2023-09-12T07:23:00;16.55;;;11.52;;
55328;SDS011;41205;44.264;19.884;2023-09-12T07:25:26;15.20;;;11.05;;
55328;SDS011;41205;44.264;19.884;2023-09-12T07:27:52;17.73;;;12.07;;
55328;SDS011;41205;44.264;19.884;2023-09-12T07:30:18;14.48;;;12.93;;
55328;SDS011;41205;44.264;19.884;2023-09-12T07:32:44;17.50;;;12.95;;
55328;SDS011;41205;44.264;19.884;2023-09-12T07:35:11;14.45;;;13.00;;
55328;SDS011;41205;44.264;19.884;2023-09-12T07:37:36;18.48;;;13.85;;
55328;SDS011;41205;44.264;19.884;2023-09-12T07:40:02;14.00;;;12.05;;
55328;SDS011;41205;44.264;19.884;2023-09-12T07:45:01;14.48;;;12.90;;
55328;SDS011;41205;44.264;19.884;2023-09-12T07:47:28;16.95;;;12.68;;
55328;SDS011;41205;44.264;19.884;2023-09-12T07:49:54;16.88;;;13.80;;
55328;SDS011;41205;44.264;19.884;2023-09-12T07:52:20;15.38;;;13.70;;
55328;SDS011;41205;44.264;19.884;2023-09-12T07:54:46;15.30;;;13.35;;
55328;SDS011;41205;44.264;19.884;2023-09-12T07:57:11;17.23;;;13.60;;
55328;SDS011;41205;44.264;19.884;2023-09-12T07:59:37;15.63;;;13.18;;
55328;SDS011;41205;44.264;19.884;2023-09-12T08:02:03;19.10;;;14.82;;
55328;SDS011;41205;44.264;19.884;2023-09-12T08:04:29;16.25;;;14.70;;
55328;SDS011;41205;44.264;19.884;2023-09-12T08:06:55;21.65;;;14.38;;
55328;SDS011;41205;44.264;19.884;2023-09-12T08:09:21;18.27;;;15.10;;
55328;SDS011;41205;44.264;19.884;2023-09-12T08:11:47;15.73;;;12.90;;
55328;SDS011;41205;44.264;19.884;2023-09-12T08:14:12;17.50;;;14.20;;
55328;SDS011;41205;44.264;19.884;2023-09-12T08:16:38;15.88;;;12.70;;
55328;SDS011;41205;44.264;19.884;2023-09-12T08:19:04;19.95;;;14.80;;
55328;SDS011;41205;44.264;19.884;2023-09-12T08:21:29;16.92;;;14.52;;
55328;SDS011;41205;44.264;19.884;2023-09-12T08:23:55;51.60;;;24.35;;
55328;SDS011;41205;44.264;19.884;2023-09-12T08:26:21;22.23;;;13.70;;
55328;SDS011;41205;44.264;19.884;2023-09-12T08:28:46;19.80;;;14.70;;
55328;SDS011;41205;44.264;19.884;2023-09-12T08:31:12;18.45;;;16.20;;
55328;SDS011;41205;44.264;19.884;2023-09-12T08:33:38;18.95;;;16.85;;
55328;SDS011;41205;44.264;19.884;2023-09-12T08:36:04;24.85;;;18.52;;
55328;SDS011;41205;44.264;19.884;2023-09-12T08:38:30;31.65;;;20.48;;
55328;SDS011;41205;44.264;19.884;2023-09-12T08:40:55;28.73;;;19.42;;
55328;SDS011;41205;44.264;19.884;2023-09-12T08:43:22;19.45;;;15.35;;
55328;SDS011;41205;44.264;19.884;2023-09-12T08:45:48;19.30;;;15.10;;
55328;SDS011;41205;44.264;19.884;2023-09-12T08:48:14;16.23;;;11.82;;
55328;SDS011;41205;44.264;19.884;2023-09-12T08:50:41;21.02;;;12.45;;
55328;SDS011;41205;44.264;19.884;2023-09-12T08:53:07;22.27;;;11.20;;
55328;SDS011;41205;44.264;19.884;2023-09-12T08:55:33;19.13;;;9.35;;
55328;SDS011;41205;44.264;19.884;2023-09-12T08:58:02;19.00;;;10.35;;
55328;SDS011;41205;44.264;19.884;2023-09-12T09:00:29;17.83;;;9.02;;
55328;SDS011;41205;44.264;19.884;2023-09-12T09:02:55;22.63;;;8.60;;
55328;SDS011;41205;44.264;19.884;2023-09-12T09:05:21;15.20;;;8.48;;
55328;SDS011;41205;44.264;19.884;2023-09-12T09:07:49;25.38;;;9.80;;
55328;SDS011;41205;44.264;19.884;2023-09-12T09:10:16;24.08;;;8.95;;
55328;SDS011;41205;44.264;19.884;2023-09-12T09:12:44;15.38;;;8.52;;
55328;SDS011;41205;44.264;19.884;2023-09-12T09:15:24;16.25;;;8.02;;
55328;SDS011;41205;44.264;19.884;2023-09-12T09:17:55;22.00;;;8.57;;
55328;SDS011;41205;44.264;19.884;2023-09-12T09:22:59;17.30;;;7.78;;
55328;SDS011;41205;44.264;19.884;2023-09-12T09:25:24;23.60;;;9.07;;
55328;SDS011;41205;44.264;19.884;2023-09-12T09:27:50;13.20;;;7.25;;
55328;SDS011;41205;44.264;19.884;2023-09-12T09:30:16;14.85;;;8.57;;
55328;SDS011;41205;44.264;19.884;2023-09-12T09:32:44;22.20;;;9.20;;
55328;SDS011;41205;44.264;19.884;2023-09-12T09:35:10;15.57;;;7.68;;
55328;SDS011;41205;44.264;19.884;2023-09-12T09:37:37;19.92;;;8.35;;
55328;SDS011;41205;44.264;19.884;2023-09-12T09:40:05;14.98;;;7.75;;
55328;SDS011;41205;44.264;19.884;2023-09-12T09:42:32;18.77;;;7.93;;
55328;SDS011;41205;44.264;19.884;2023-09-12T09:44:58;24.13;;;9.10;;
55328;SDS011;41205;44.264;19.884;2023-09-12T09:47:23;18.48;;;9.32;;
55328;SDS011;41205;44.264;19.884;2023-09-12T09:49:51;17.70;;;8.35;;
55328;SDS011;41205;44.264;19.884;2023-09-12T09:52:27;20.80;;;7.35;;
55328;SDS011;41205;44.264;19.884;2023-09-12T09:54:53;14.27;;;7.75;;
55328;SDS011;41205;44.264;19.884;2023-09-12T09:57:18;17.33;;;8.10;;
55328;SDS011;41205;44.264;19.884;2023-09-12T09:59:48;18.90;;;8.60;;
55328;SDS011;41205;44.264;19.884;2023-09-12T10:02:18;17.05;;;7.85;;
55328;SDS011;41205;44.264;19.884;2023-09-12T10:04:47;14.73;;;7.90;;
55328;SDS011;41205;44.264;19.884;2023-09-12T10:07:15;13.70;;;8.20;;
55328;SDS011;41205;44.264;19.884;2023-09-12T10:09:41;17.98;;;8.63;;
55328;SDS011;41205;44.264;19.884;2023-09-12T10:12:09;15.40;;;7.75;;
55328;SDS011;41205;44.264;19.884;2023-09-12T10:14:35;21.70;;;7.63;;
55328;SDS011;41205;44.264;19.884;2023-09-12T10:17:03;17.48;;;7.30;;
55328;SDS011;41205;44.264;19.884;2023-09-12T10:19:33;19.30;;;8.52;;
55328;SDS011;41205;44.264;19.884;2023-09-12T10:22:07;21.70;;;6.93;;
55328;SDS011;41205;44.264;19.884;2023-09-12T10:24:49;23.83;;;7.97;;
55328;SDS011;41205;44.264;19.884;2023-09-12T10:27:18;13.75;;;6.60;;
55328;SDS011;41205;44.264;19.884;2023-09-12T10:29:45;20.42;;;7.10;;
55328;SDS011;41205;44.264;19.884;2023-09-12T10:32:12;16.30;;;8.40;;
55328;SDS011;41205;44.264;19.884;2023-09-12T10:34:39;15.52;;;7.82;;
55328;SDS011;41205;44.264;19.884;2023-09-12T10:37:10;14.18;;;7.20;;
55328;SDS011;41205;44.264;19.884;2023-09-12T10:39:41;18.98;;;7.38;;
55328;SDS011;41205;44.264;19.884;2023-09-12T10:42:08;17.58;;;7.50;;
55328;SDS011;41205;44.264;19.884;2023-09-12T10:44:37;18.60;;;7.72;;
55328;SDS011;41205;44.264;19.884;2023-09-12T10:47:03;16.05;;;7.53;;
55328;SDS011;41205;44.264;19.884;2023-09-12T10:49:30;22.73;;;7.30;;
55328;SDS011;41205;44.264;19.884;2023-09-12T10:51:56;29.08;;;7.03;;
55328;SDS011;41205;44.264;19.884;2023-09-12T10:54:26;19.65;;;8.20;;
55328;SDS011;41205;44.264;19.884;2023-09-12T10:57:10;13.80;;;7.68;;
55328;SDS011;41205;44.264;19.884;2023-09-12T11:02:32;36.35;;;9.30;;
55328;SDS011;41205;44.264;19.884;2023-09-12T11:05:00;24.08;;;8.20;;
55328;SDS011;41205;44.264;19.884;2023-09-12T11:07:50;21.48;;;7.80;;
55328;SDS011;41205;44.264;19.884;2023-09-12T11:12:42;24.67;;;7.45;;
55328;SDS011;41205;44.264;19.884;2023-09-12T11:15:08;23.40;;;8.88;;
55328;SDS011;41205;44.264;19.884;2023-09-12T11:17:39;26.08;;;8.73;;
55328;SDS011;41205;44.264;19.884;2023-09-12T11:20:05;22.48;;;8.70;;
55328;SDS011;41205;44.264;19.884;2023-09-12T11:22:36;34.63;;;8.77;;
55328;SDS011;41205;44.264;19.884;2023-09-12T11:25:04;19.42;;;7.85;;
55328;SDS011;41205;44.264;19.884;2023-09-12T11:40:53;26.42;;;10.38;;
55328;SDS011;41205;44.264;19.884;2023-09-12T11:43:25;25.80;;;9.98;;
55328;SDS011;41205;44.264;19.884;2023-09-12T11:45:52;26.77;;;10.50;;
55328;SDS011;41205;44.264;19.884;2023-09-12T11:48:20;26.20;;;9.95;;
55328;SDS011;41205;44.264;19.884;2023-09-12T11:50:53;17.77;;;9.55;;
55328;SDS011;41205;44.264;19.884;2023-09-12T11:53:21;29.77;;;11.05;;
55328;SDS011;41205;44.264;19.884;2023-09-12T11:55:51;28.88;;;10.07;;
55328;SDS011;41205;44.264;19.884;2023-09-12T11:58:21;27.65;;;10.32;;
55328;SDS011;41205;44.264;19.884;2023-09-12T12:00:51;19.95;;;9.10;;
55328;SDS011;41205;44.264;19.884;2023-09-12T12:03:19;24.73;;;10.57;;
55328;SDS011;41205;44.264;19.884;2023-09-12T12:05:48;23.63;;;10.07;;
55328;SDS011;41205;44.264;19.884;2023-09-12T12:08:15;26.40;;;9.73;;
55328;SDS011;41205;44.264;19.884;2023-09-12T12:10:42;24.33;;;10.65;;
55328;SDS011;41205;44.264;19.884;2023-09-12T12:13:11;24.83;;;10.15;;
55328;SDS011;41205;44.264;19.884;2023-09-12T12:15:41;26.27;;;10.70;;
55328;SDS011;41205;44.264;19.884;2023-09-12T12:18:07;26.05;;;10.65;;
55328;SDS011;41205;44.264;19.884;2023-09-12T12:20:33;26.05;;;10.13;;
55328;SDS011;41205;44.264;19.884;2023-09-12T12:22:59;25.90;;;10.45;;
55328;SDS011;41205;44.264;19.884;2023-09-12T12:25:25;30.85;;;11.45;;
55328;SDS011;41205;44.264;19.884;2023-09-12T12:27:50;24.13;;;11.75;;
55328;SDS011;41205;44.264;19.884;2023-09-12T12:30:17;25.35;;;11.77;;
55328;SDS011;41205;44.264;19.884;2023-09-12T12:32:44;29.30;;;13.10;;
55328;SDS011;41205;44.264;19.884;2023-09-12T12:35:20;23.20;;;10.68;;
55328;SDS011;41205;44.264;19.884;2023-09-12T12:37:48;25.48;;;10.70;;
55328;SDS011;41205;44.264;19.884;2023-09-12T12:40:15;24.95;;;10.13;;
55328;SDS011;41205;44.264;19.884;2023-09-12T12:42:44;26.90;;;13.15;;
55328;SDS011;41205;44.264;19.884;2023-09-12T12:45:14;25.00;;;11.43;;
55328;SDS011;41205;44.264;19.884;2023-09-12T12:47:41;32.10;;;11.95;;
55328;SDS011;41205;44.264;19.884;2023-09-12T12:50:10;23.58;;;10.82;;
55328;SDS011;41205;44.264;19.884;2023-09-12T12:52:39;24.55;;;11.27;;
55328;SDS011;41205;44.264;19.884;2023-09-12T12:55:12;17.35;;;8.57;;
55328;SDS011;41205;44.264;19.884;2023-09-12T12:57:39;22.30;;;8.82;;
55328;SDS011;41205;44.264;19.884;2023-09-12T13:02:35;17.75;;;8.18;;
55328;SDS011;41205;44.264;19.884;2023-09-12T13:05:27;21.55;;;9.63;;
55328;SDS011;41205;44.264;19.884;2023-09-12T13:07:55;23.80;;;7.78;;
55328;SDS011;41205;44.264;19.884;2023-09-12T13:10:22;20.67;;;9.00;;
55328;SDS011;41205;44.264;19.884;2023-09-12T13:12:48;17.75;;;9.30;;
55328;SDS011;41205;44.264;19.884;2023-09-12T13:15:15;21.67;;;9.02;;
55328;SDS011;41205;44.264;19.884;2023-09-12T13:17:41;21.50;;;9.23;;
55328;SDS011;41205;44.264;19.884;2023-09-12T13:20:08;23.23;;;8.63;;
55328;SDS011;41205;44.264;19.884;2023-09-12T13:22:35;22.35;;;8.90;;
55328;SDS011;41205;44.264;19.884;2023-09-12T13:25:02;30.65;;;9.88;;
55328;SDS011;41205;44.264;19.884;2023-09-12T13:27:28;20.23;;;8.35;;
55328;SDS011;41205;44.264;19.884;2023-09-12T13:29:54;25.13;;;8.18;;
55328;SDS011;41205;44.264;19.884;2023-09-12T13:32:20;28.55;;;8.95;;
55328;SDS011;41205;44.264;19.884;2023-09-12T13:34:45;19.98;;;8.70;;
55328;SDS011;41205;44.264;19.884;2023-09-12T13:37:11;20.05;;;8.70;;
55328;SDS011;41205;44.264;19.884;2023-09-12T13:39:37;27.38;;;10.02;;
55328;SDS011;41205;44.264;19.884;2023-09-12T13:42:03;23.15;;;8.00;;
55328;SDS011;41205;44.264;19.884;2023-09-12T13:44:33;19.92;;;8.60;;
55328;SDS011;41205;44.264;19.884;2023-09-12T13:46:58;24.95;;;8.30;;
55328;SDS011;41205;44.264;19.884;2023-09-12T13:49:24;17.15;;;7.30;;
55328;SDS011;41205;44.264;19.884;2023-09-12T13:51:50;20.55;;;7.93;;
55328;SDS011;41205;44.264;19.884;2023-09-12T13:54:16;19.52;;;8.15;;
55328;SDS011;41205;44.264;19.884;2023-09-12T13:56:41;20.30;;;9.90;;
55328;SDS011;41205;44.264;19.884;2023-09-12T13:59:07;24.15;;;8.75;;
55328;SDS011;41205;44.264;19.884;2023-09-12T14:01:33;23.02;;;9.45;;
55328;SDS011;41205;44.264;19.884;2023-09-12T14:03:59;23.50;;;8.52;;
55328;SDS011;41205;44.264;19.884;2023-09-12T14:06:25;20.90;;;8.63;;
55328;SDS011;41205;44.264;19.884;2023-09-12T14:08:51;21.02;;;8.40;;
55328;SDS011;41205;44.264;19.884;2023-09-12T14:11:17;17.05;;;7.47;;
55328;SDS011;41205;44.264;19.884;2023-09-12T14:13:43;15.82;;;7.03;;
55328;SDS011;41205;44.264;19.884;2023-09-12T14:16:10;16.45;;;7.43;;
55328;SDS011;41205;44.264;19.884;2023-09-12T14:18:36;18.75;;;7.03;;
55328;SDS011;41205;44.264;19.884;2023-09-12T14:21:02;22.77;;;8.50;;
55328;SDS011;41205;44.264;19.884;2023-09-12T14:23:28;20.92;;;7.97;;
55328;SDS011;41205;44.264;19.884;2023-09-12T14:25:54;25.60;;;7.97;;
55328;SDS011;41205;44.264;19.884;2023-09-12T14:28:19;20.70;;;7.95;;
55328;SDS011;41205;44.264;19.884;2023-09-12T14:30:45;23.88;;;8.60;;
55328;SDS011;41205;44.264;19.884;2023-09-12T14:33:13;20.30;;;7.82;;
55328;SDS011;41205;44.264;19.884;2023-09-12T14:35:39;26.70;;;9.30;;
55328;SDS011;41205;44.264;19.884;2023-09-12T14:38:06;22.10;;;9.27;;
55328;SDS011;41205;44.264;19.884;2023-09-12T14:40:32;20.98;;;8.90;;
55328;SDS011;41205;44.264;19.884;2023-09-12T14:42:58;18.23;;;8.70;;
55328;SDS011;41205;44.264;19.884;2023-09-12T14:45:23;17.02;;;6.30;;
55328;SDS011;41205;44.264;19.884;2023-09-12T14:47:50;20.08;;;8.20;;
55328;SDS011;41205;44.264;19.884;2023-09-12T14:50:16;29.95;;;8.70;;
55328;SDS011;41205;44.264;19.884;2023-09-12T14:52:42;20.15;;;8.18;;
55328;SDS011;41205;44.264;19.884;2023-09-12T14:55:08;21.50;;;7.70;;
55328;SDS011;41205;44.264;19.884;2023-09-12T14:57:34;20.42;;;7.57;;
55328;SDS011;41205;44.264;19.884;2023-09-12T15:00:00;26.42;;;8.25;;
55328;SDS011;41205;44.264;19.884;2023-09-12T15:02:26;22.27;;;7.97;;
55328;SDS011;41205;44.264;19.884;2023-09-12T15:04:59;17.70;;;7.90;;
55328;SDS011;41205;44.264;19.884;2023-09-12T15:07:26;20.30;;;8.00;;
55328;SDS011;41205;44.264;19.884;2023-09-12T15:09:54;20.35;;;7.43;;
55328;SDS011;41205;44.264;19.884;2023-09-12T15:12:20;18.33;;;7.25;;
55328;SDS011;41205;44.264;19.884;2023-09-12T15:14:46;19.95;;;8.25;;
55328;SDS011;41205;44.264;19.884;2023-09-12T15:17:12;19.48;;;7.30;;
55328;SDS011;41205;44.264;19.884;2023-09-12T15:19:37;22.23;;;8.88;;
55328;SDS011;41205;44.264;19.884;2023-09-12T15:22:03;20.70;;;8.63;;
55328;SDS011;41205;44.264;19.884;2023-09-12T15:24:29;22.35;;;7.82;;
55328;SDS011;41205;44.264;19.884;2023-09-12T15:26:55;23.95;;;7.53;;
55328;SDS011;41205;44.264;19.884;2023-09-12T15:29:21;14.27;;;8.07;;
55328;SDS011;41205;44.264;19.884;2023-09-12T15:31:47;17.90;;;7.78;;
55328;SDS011;41205;44.264;19.884;2023-09-12T15:34:12;18.38;;;8.60;;
55328;SDS011;41205;44.264;19.884;2023-09-12T15:36:43;17.52;;;8.73;;
55328;SDS011;41205;44.264;19.884;2023-09-12T15:39:10;19.20;;;9.20;;
55328;SDS011;41205;44.264;19.884;2023-09-12T15:41:36;24.35;;;10.75;;
55328;SDS011;41205;44.264;19.884;2023-09-12T15:44:02;23.65;;;9.32;;
55328;SDS011;41205;44.264;19.884;2023-09-12T15:46:31;24.30;;;9.80;;
55328;SDS011;41205;44.264;19.884;2023-09-12T15:48:57;17.27;;;9.57;;
55328;SDS011;41205;44.264;19.884;2023-09-12T15:51:23;19.42;;;9.57;;
55328;SDS011;41205;44.264;19.884;2023-09-12T15:53:49;23.40;;;10.15;;
55328;SDS011;41205;44.264;19.884;2023-09-12T15:56:15;23.55;;;10.00;;
55328;SDS011;41205;44.264;19.884;2023-09-12T15:58:41;24.63;;;11.48;;
55328;SDS011;41205;44.264;19.884;2023-09-12T16:01:11;21.20;;;10.40;;
55328;SDS011;41205;44.264;19.884;2023-09-12T16:03:37;22.52;;;10.93;;
55328;SDS011;41205;44.264;19.884;2023-09-12T16:06:03;20.90;;;10.13;;
55328;SDS011;41205;44.264;19.884;2023-09-12T16:08:29;19.92;;;9.68;;
55328;SDS011;41205;44.264;19.884;2023-09-12T16:10:54;28.55;;;9.63;;
55328;SDS011;41205;44.264;19.884;2023-09-12T16:13:20;26.25;;;9.48;;
55328;SDS011;41205;44.264;19.884;2023-09-12T16:15:49;19.42;;;10.13;;
55328;SDS011;41205;44.264;19.884;2023-09-12T16:18:15;20.73;;;7.97;;
55328;SDS011;41205;44.264;19.884;2023-09-12T16:20:40;19.88;;;8.68;;
55328;SDS011;41205;44.264;19.884;2023-09-12T16:23:07;17.95;;;9.32;;
55328;SDS011;41205;44.264;19.884;2023-09-12T16:25:33;36.60;;;11.20;;
55328;SDS011;41205;44.264;19.884;2023-09-12T16:27:59;22.38;;;9.63;;
55328;SDS011;41205;44.264;19.884;2023-09-12T16:30:24;21.55;;;9.32;;
55328;SDS011;41205;44.264;19.884;2023-09-12T16:32:50;17.30;;;9.68;;
55328;SDS011;41205;44.264;19.884;2023-09-12T16:35:17;18.33;;;8.50;;
55328;SDS011;41205;44.264;19.884;2023-09-12T16:37:42;24.40;;;9.43;;
55328;SDS011;41205;44.264;19.884;2023-09-12T16:40:09;26.45;;;9.43;;
55328;SDS011;41205;44.264;19.884;2023-09-12T16:42:35;23.27;;;9.05;;
55328;SDS011;41205;44.264;19.884;2023-09-12T16:45:00;20.67;;;9.35;;
55328;SDS011;41205;44.264;19.884;2023-09-12T16:47:28;25.27;;;8.65;;
55328;SDS011;41205;44.264;19.884;2023-09-12T16:49:55;16.52;;;8.93;;
55328;SDS011;41205;44.264;19.884;2023-09-12T16:52:22;22.55;;;8.85;;
55328;SDS011;41205;44.264;19.884;2023-09-12T16:54:47;22.05;;;8.77;;
55328;SDS011;41205;44.264;19.884;2023-09-12T16:57:13;23.63;;;8.70;;
55328;SDS011;41205;44.264;19.884;2023-09-12T16:59:40;27.42;;;9.80;;
55328;SDS011;41205;44.264;19.884;2023-09-12T17:02:10;20.95;;;9.40;;
55328;SDS011;41205;44.264;19.884;2023-09-12T17:04:37;21.42;;;8.60;;
55328;SDS011;41205;44.264;19.884;2023-09-12T17:07:07;15.52;;;8.48;;
55328;SDS011;41205;44.264;19.884;2023-09-12T17:09:38;19.58;;;8.52;;
55328;SDS011;41205;44.264;19.884;2023-09-12T17:12:04;24.73;;;9.35;;
55328;SDS011;41205;44.264;19.884;2023-09-12T17:14:32;18.63;;;8.57;;
55328;SDS011;41205;44.264;19.884;2023-09-12T17:16:57;16.80;;;8.00;;
55328;SDS011;41205;44.264;19.884;2023-09-12T17:19:23;20.40;;;9.43;;
55328;SDS011;41205;44.264;19.884;2023-09-12T17:21:49;18.42;;;8.10;;
55328;SDS011;41205;44.264;19.884;2023-09-12T17:24:15;18.10;;;9.45;;
55328;SDS011;41205;44.264;19.884;2023-09-12T17:26:40;19.65;;;10.13;;
55328;SDS011;41205;44.264;19.884;2023-09-12T17:29:06;15.82;;;8.95;;
55328;SDS011;41205;44.264;19.884;2023-09-12T17:31:32;28.20;;;8.93;;
55328;SDS011;41205;44.264;19.884;2023-09-12T17:33:57;15.50;;;7.60;;
55328;SDS011;41205;44.264;19.884;2023-09-12T17:36:23;20.48;;;9.15;;
55328;SDS011;41205;44.264;19.884;2023-09-12T17:38:49;25.20;;;7.85;;
55328;SDS011;41205;44.264;19.884;2023-09-12T17:41:14;20.02;;;9.38;;
55328;SDS011;41205;44.264;19.884;2023-09-12T17:43:40;19.92;;;8.65;;
55328;SDS011;41205;44.264;19.884;2023-09-12T17:46:06;16.77;;;7.15;;
55328;SDS011;41205;44.264;19.884;2023-09-12T17:48:32;15.40;;;8.27;;
55328;SDS011;41205;44.264;19.884;2023-09-12T17:50:57;21.08;;;7.78;;
55328;SDS011;41205;44.264;19.884;2023-09-12T17:53:23;10.32;;;6.78;;
55328;SDS011;41205;44.264;19.884;2023-09-12T17:55:52;18.35;;;8.13;;
55328;SDS011;41205;44.264;19.884;2023-09-12T17:58:18;26.65;;;8.25;;
55328;SDS011;41205;44.264;19.884;2023-09-12T18:00:53;23.05;;;8.48;;
55328;SDS011;41205;44.264;19.884;2023-09-12T18:03:20;22.45;;;9.60;;
55328;SDS011;41205;44.264;19.884;2023-09-12T18:05:46;23.85;;;8.50;;
55328;SDS011;41205;44.264;19.884;2023-09-12T18:08:12;18.10;;;8.90;;
55328;SDS011;41205;44.264;19.884;2023-09-12T18:10:38;20.40;;;8.30;;
55328;SDS011;41205;44.264;19.884;2023-09-12T18:13:03;17.42;;;8.23;;
55328;SDS011;41205;44.264;19.884;2023-09-12T18:15:29;18.13;;;6.88;;
55328;SDS011;41205;44.264;19.884;2023-09-12T18:17:55;15.45;;;7.55;;
55328;SDS011;41205;44.264;19.884;2023-09-12T18:20:21;17.85;;;8.85;;
55328;SDS011;41205;44.264;19.884;2023-09-12T18:22:46;22.25;;;7.97;;
55328;SDS011;41205;44.264;19.884;2023-09-12T18:25:12;19.48;;;7.72;;
55328;SDS011;41205;44.264;19.884;2023-09-12T18:27:39;19.95;;;8.13;;
55328;SDS011;41205;44.264;19.884;2023-09-12T18:30:05;17.13;;;8.55;;
55328;SDS011;41205;44.264;19.884;2023-09-12T18:32:32;16.58;;;7.53;;
55328;SDS011;41205;44.264;19.884;2023-09-12T18:34:58;13.13;;;7.43;;
55328;SDS011;41205;44.264;19.884;2023-09-12T18:37:24;16.58;;;8.88;;
55328;SDS011;41205;44.264;19.884;2023-09-12T18:39:50;22.70;;;8.43;;
55328;SDS011;41205;44.264;19.884;2023-09-12T18:42:16;18.13;;;8.07;;
55328;SDS011;41205;44.264;19.884;2023-09-12T18:44:42;17.55;;;7.55;;
55328;SDS011;41205;44.264;19.884;2023-09-12T18:47:07;18.13;;;7.72;;
55328;SDS011;41205;44.264;19.884;2023-09-12T18:49:33;18.90;;;7.57;;
55328;SDS011;41205;44.264;19.884;2023-09-12T18:51:59;17.83;;;8.85;;
55328;SDS011;41205;44.264;19.884;2023-09-12T18:54:25;16.52;;;8.13;;